• Join FlightAware (Why Join?)
  • Login
  • US Flag 
03:34PM EST


 

Airport Tracker/Info


-or-


 

Live Flight TrackerFlight Track Log ✈ DAL6067 ✈ 13-Mar-2014 ✈ KDTW - KALB

Flight Track Log - Related Links

Times and Time Zones

All times are in EDT time to prevent confusion due to time zone crossing. See the DAL6067 flight status page for this flight to view local times or setup timezone preferences in your user account.

Time Position Orientation Groundspeed Altitude Reporting Facility
EDT Latitude Longitude Course Direction KTS MPH feet Rate Location/Type
10:15PM 42.2050 -83.3528 82° East 150 173 1,300  Level Cleveland Center
10:16PM 42.1572 -83.3489 177° South 194 223 3,400 1,740 Climbing Cleveland Center
10:17PM 42.1383 -83.3417 164° South 185 213 3,900 1,620 Climbing Cleveland Center
10:17PM 42.1031 -83.3189 154° Southeast 269 310 5,100 2,160 Climbing Cleveland Center
10:18PM 42.2827 -82.9192 71° East  Level FlightAware Approximate
10:18PM 42.0919 -83.2675 106° East 269 310 6,100  Level Cleveland Center
10:18PM 42.1092 -83.2100 68° East 307 353 7,500 2,220 Climbing Cleveland Center
10:19PM 42.3115 -82.7759 75° East  Level FlightAware Approximate
10:19PM 42.1225 -83.1750 63° Northeast 292 336 8,400  Level Cleveland Center
10:20PM 42.3288 -82.6293 82° East  Level FlightAware Approximate
10:20PM 42.1567 -83.0736 66° East 298 343 10,300  Level Cleveland Center
10:21PM 42.1956 -82.9600 65° Northeast 336 387 11,400 1,200 Climbing Cleveland Center
10:22PM 42.2356 -82.8067 71° East 370 426 12,800 1,140 Climbing Cleveland Center
10:23PM 42.2358 -82.6578 90° East 396 456 13,800 1,020 Climbing Cleveland Center
10:24PM 42.2361 -82.5058 90° East 403 464 14,900 1,020 Climbing Cleveland Center
10:25PM 42.2358 -82.3531 90° East 408 470 15,900 960 Climbing Cleveland Center
10:26PM 42.2358 -82.2000 90° East 408 470 16,900 960 Climbing Cleveland Center
10:27PM 42.2353 -82.0378 90° East 417 480 17,900 960 Climbing Cleveland Center
10:28PM 42.2347 -81.8789 90° East 417 480 18,900 1,020 Climbing Cleveland Center
10:29PM 42.2342 -81.7169 90° East 423 487 20,000 1,020 Climbing Cleveland Center
10:30PM 42.2325 -81.5542 91° East 427 491 21,100 1,020 Climbing Cleveland Center
10:31PM 42.2314 -81.3878 90° East 435 501 22,100 1,020 Climbing Cleveland Center
10:32PM 42.2294 -81.2208 91° East 436 502 23,200 1,020 Climbing Cleveland Center
10:33PM 42.2275 -81.0528 91° East 444 511 24,200 1,080 Climbing Cleveland Center
10:34PM 42.2247 -80.8575 91° East 443 510 25,400 1,080 Climbing Cleveland Center
10:35PM 42.2242 -80.6908 90° East 443 510 26,500 1,020 Climbing Cleveland Center
10:36PM 42.2203 -80.5253 92° East 437 503 27,500 1,020 Climbing Cleveland Center
10:37PM 42.2183 -80.3586 91° East 440 506 28,600 1,020 Climbing Cleveland Center
10:38PM 42.2144 -80.1919 92° East 440 506 29,600 1,020 Climbing Cleveland Center
10:39PM 42.2269 -80.0308 84° East 432 497 30,700 960 Climbing Cleveland Center
10:40PM 42.2417 -79.8886 82° East 423 487 31,600 1,020 Climbing Cleveland Center
10:41PM 42.2628 -79.6958 82° East 431 496 32,800 660 Climbing Cleveland Center
10:42PM 42.2808 -79.5303 82° East 444 511 33,000 60 Climbing Cleveland Center
10:43PM 42.2989 -79.3553 82° East 470 541 33,000  Level Cleveland Center
10:44PM 42.3183 -79.1753 82° East 484 557 33,000  Level Cleveland Center
10:45PM 42.3364 -78.9969 82° East 483 556 33,000  Level Cleveland Center
10:46PM 42.3553 -78.8147 82° East 483 556 33,000  Level Cleveland Center
10:47PM 42.3731 -78.6331 82° East 485 558 33,000  Level Cleveland Center
10:48PM 42.3914 -78.4525 82° East 488 562 33,000  Level Cleveland Center
10:49PM 42.4094 -78.2697 82° East 488 562 33,000  Level Cleveland Center
10:50PM 42.4258 -78.0894 83° East 488 562 33,000  Level Cleveland Center
10:51PM 42.4464 -77.8775 82° East 481 554 33,000  Level Cleveland Center
10:52PM 42.4617 -77.7072 83° East 478 550 33,000 -180 Level Cleveland Center
10:53PM 42.4772 -77.5306 83° East 477 549 32,700 -660 Descending Cleveland Center
10:54PM 42.4928 -77.3583 83° East 474 545 31,700 -840 Descending Cleveland Center
10:55PM 42.5078 -77.1847 83° East 471 542 31,000 -360 Descending Cleveland Center
10:57PM 42.5256 -76.9792 83° East 464 534 31,000  Level Cleveland Center
10:58PM 42.5400 -76.8086 83° East 461 531 31,000  Level Cleveland Center
10:59PM 42.5531 -76.6397 84° East 454 522 31,000  Level Boston Center
11:00PM 42.5683 -76.4667 83° East 461 531 31,000 -120 Level Boston Center
11:01PM 42.5806 -76.2953 84° East 459 528 30,800 -840 Descending Boston Center
11:02PM 42.5947 -76.1236 84° East 453 521 29,400 -1,380 Descending Boston Center
11:03PM 42.6081 -75.9536 84° East 456 525 28,000 -1,440 Descending Boston Center
11:04PM 42.6206 -75.7806 84° East 462 532 26,500 -1,440 Descending Boston Center
11:05PM 42.6336 -75.6042 84° East 471 542 25,100 -1,440 Descending Boston Center
11:06PM 42.6461 -75.4278 84° East 475 547 23,700 -1,440 Descending Boston Center
11:07PM 42.6581 -75.2564 85° East 466 536 22,200 -1,860 Descending Boston Center
11:08PM 42.6692 -75.0939 85° East 446 513 20,000 -2,280 Descending Boston Center
11:09PM 42.6794 -74.9422 85° East 413 475 17,700 -2,580 Descending Boston Center
11:10PM 42.6906 -74.7700 85° East 391 450 14,800 -2,400 Descending Boston Center
11:11PM 42.6975 -74.6508 85° East 382 440 13,200 -1,920 Descending Boston Center
11:11PM 42.7003 -74.6272 81° East 379 436 12,900 -1,620 Descending Boston Center
11:11PM 42.7000 -74.6050 91° East 379 436 12,700 -1,680 Descending Boston Center
11:12PM 42.7069 -74.4850 85° East 377 434 11,200 -1,740 Descending Boston Center
11:12PM 42.6953 -74.4603 123° Southeast 365 420 11,000 -1,140 Descending Boston Center
11:13PM 42.6581 -74.3650 118° Southeast 333 383 10,100 -1,020 Descending Boston Center
11:13PM 42.6511 -74.3517 125° Southeast 312 359 10,000 -1,020 Descending Boston Center
11:14PM 42.6175 -74.2678 119° Southeast 299 344 9,100 -1,020 Descending Boston Center
11:14PM 42.6092 -74.2556 133° Southeast 286 329 9,000 -1,620 Descending Boston Center
11:15PM 42.6031 -74.1692 95° East 269 310 7,500 -1,800 Descending Boston Center
11:15PM 42.6003 -74.1536 104° East 264 304 7,200 -1,920 Descending Boston Center
11:16PM 42.5994 -74.0656 91° East 276 318 5,600 -1,920 Descending Boston Center
11:16PM 42.5981 -74.0508 97° East 276 318 5,300 -1,920 Descending Boston Center
11:17PM 42.5958 -73.9631 92° East 276 318 3,700 -1,620 Descending Boston Center
11:17PM 42.5925 -73.9183 96° East 264 304 3,200 -1,140 Descending Boston Center
11:18PM 42.6097 -73.8689 65° Northeast 238 274 2,600 -780 Descending Boston Center
11:18PM 42.6183 -73.8483 60° Northeast 213 245 2,500 -240 Descending Boston Center
11:19PM 42.6425 -73.8108 49° Northeast 194 223 2,400 -420 Descending Boston Center
11:19PM 42.6528 -73.8019 32° Northeast 159 183 2,100 -840 Descending Boston Center
11:20PM 42.6778 -73.8003 North 132 152 1,600 -780 Descending Boston Center
11:20PM 42.6831 -73.8006 358° North 109 125 1,400 -720 Descending Boston Center
11:21PM 42.7122 -73.8031 356° North 125 144 900 -720 Descending Boston Center
11:21PM 42.7189 -73.8039 355° North 128 147 700 -600 Descending Boston Center
11:22PM 42.7506 -73.8050 359° North 132 152 300 -540 Descending Boston Center